sensor_id;sensor_type;location;lat;lon;timestamp;temperature;humidity
35445;DHT22;21562;49.476;6.086;2022-11-15T00:01:54;13.70;99.90
35445;DHT22;21562;49.476;6.086;2022-11-15T00:04:20;13.70;99.90
35445;DHT22;21562;49.476;6.086;2022-11-15T00:06:46;13.80;99.90
35445;DHT22;21562;49.476;6.086;2022-11-15T00:09:11;14.00;99.90
35445;DHT22;21562;49.476;6.086;2022-11-15T00:11:37;14.00;99.90
35445;DHT22;21562;49.476;6.086;2022-11-15T00:14:03;13.90;99.90
35445;DHT22;21562;49.476;6.086;2022-11-15T00:16:28;13.90;99.90
35445;DHT22;21562;49.476;6.086;2022-11-15T00:18:54;13.80;99.90
35445;DHT22;21562;49.476;6.086;2022-11-15T00:21:20;13.70;99.90
35445;DHT22;21562;49.476;6.086;2022-11-15T00:23:46;13.80;99.90
35445;DHT22;21562;49.476;6.086;2022-11-15T00:26:13;13.60;99.90
35445;DHT22;21562;49.476;6.086;2022-11-15T00:28:39;13.30;99.90
35445;DHT22;21562;49.476;6.086;2022-11-15T00:31:07;12.90;99.90
35445;DHT22;21562;49.476;6.086;2022-11-15T00:33:34;13.00;99.90
35445;DHT22;21562;49.476;6.086;2022-11-15T00:36:04;12.80;99.90
35445;DHT22;21562;49.476;6.086;2022-11-15T00:38:35;12.70;99.90
35445;DHT22;21562;49.476;6.086;2022-11-15T00:41:03;12.60;99.90
35445;DHT22;21562;49.476;6.086;2022-11-15T00:43:29;12.60;99.90
35445;DHT22;21562;49.476;6.086;2022-11-15T00:45:55;12.70;99.90
35445;DHT22;21562;49.476;6.086;2022-11-15T00:48:21;12.50;99.90
35445;DHT22;21562;49.476;6.086;2022-11-15T00:50:46;12.60;99.90
35445;DHT22;21562;49.476;6.086;2022-11-15T00:53:12;12.50;99.90
35445;DHT22;21562;49.476;6.086;2022-11-15T00:55:38;12.40;99.90
35445;DHT22;21562;49.476;6.086;2022-11-15T00:58:03;12.50;99.90
35445;DHT22;21562;49.476;6.086;2022-11-15T01:00:29;12.70;99.90
35445;DHT22;21562;49.476;6.086;2022-11-15T01:02:55;12.60;99.90
35445;DHT22;21562;49.476;6.086;2022-11-15T01:05:21;12.50;99.90
35445;DHT22;21562;49.476;6.086;2022-11-15T01:07:46;12.70;99.90
35445;DHT22;21562;49.476;6.086;2022-11-15T01:10:12;12.50;99.90
35445;DHT22;21562;49.476;6.086;2022-11-15T01:12:38;12.40;99.90
35445;DHT22;21562;49.476;6.086;2022-11-15T01:15:04;12.30;99.90
35445;DHT22;21562;49.476;6.086;2022-11-15T01:17:31;12.30;99.90
35445;DHT22;21562;49.476;6.086;2022-11-15T01:19:56;12.40;99.90
35445;DHT22;21562;49.476;6.086;2022-11-15T01:22:22;12.50;99.90
35445;DHT22;21562;49.476;6.086;2022-11-15T01:24:50;12.70;99.90
35445;DHT22;21562;49.476;6.086;2022-11-15T01:27:15;12.80;99.90
35445;DHT22;21562;49.476;6.086;2022-11-15T01:29:41;12.70;99.90
35445;DHT22;21562;49.476;6.086;2022-11-15T01:32:07;12.80;99.90
35445;DHT22;21562;49.476;6.086;2022-11-15T01:34:33;12.70;99.90
35445;DHT22;21562;49.476;6.086;2022-11-15T01:36:58;12.70;99.90
35445;DHT22;21562;49.476;6.086;2022-11-15T01:39:24;12.80;99.90
35445;DHT22;21562;49.476;6.086;2022-11-15T01:41:50;12.80;99.90
35445;DHT22;21562;49.476;6.086;2022-11-15T01:47:03;12.70;99.90
35445;DHT22;21562;49.476;6.086;2022-11-15T01:49:33;12.90;99.90
35445;DHT22;21562;49.476;6.086;2022-11-15T01:52:01;12.80;99.90
35445;DHT22;21562;49.476;6.086;2022-11-15T01:54:28;13.00;99.90
35445;DHT22;21562;49.476;6.086;2022-11-15T01:57:03;13.00;99.90
35445;DHT22;21562;49.476;6.086;2022-11-15T01:59:30;12.80;99.90
35445;DHT22;21562;49.476;6.086;2022-11-15T02:01:56;12.90;99.90
35445;DHT22;21562;49.476;6.086;2022-11-15T02:04:38;12.60;99.90
35445;DHT22;21562;49.476;6.086;2022-11-15T02:07:05;12.70;99.90
35445;DHT22;21562;49.476;6.086;2022-11-15T02:09:32;12.80;99.90
35445;DHT22;21562;49.476;6.086;2022-11-15T02:11:59;12.80;99.90
35445;DHT22;21562;49.476;6.086;2022-11-15T02:14:26;12.70;99.90
35445;DHT22;21562;49.476;6.086;2022-11-15T02:17:07;12.60;99.90
35445;DHT22;21562;49.476;6.086;2022-11-15T02:25:34;12.40;99.90
35445;DHT22;21562;49.476;6.086;2022-11-15T02:28:30;12.30;99.90
35445;DHT22;21562;49.476;6.086;2022-11-15T02:36:25;12.40;99.90
35445;DHT22;21562;49.476;6.086;2022-11-15T02:39:05;12.40;99.90
35445;DHT22;21562;49.476;6.086;2022-11-15T02:44:37;12.40;99.90
35445;DHT22;21562;49.476;6.086;2022-11-15T02:47:09;12.60;99.90
35445;DHT22;21562;49.476;6.086;2022-11-15T02:49:41;12.60;99.90
35445;DHT22;21562;49.476;6.086;2022-11-15T02:52:09;12.60;99.90
35445;DHT22;21562;49.476;6.086;2022-11-15T02:54:39;12.50;99.90
35445;DHT22;21562;49.476;6.086;2022-11-15T02:57:11;12.40;99.90
35445;DHT22;21562;49.476;6.086;2022-11-15T03:05:35;12.70;99.90
35445;DHT22;21562;49.476;6.086;2022-11-15T03:16:08;12.20;99.90
35445;DHT22;21562;49.476;6.086;2022-11-15T03:18:41;12.20;99.90
35445;DHT22;21562;49.476;6.086;2022-11-15T03:21:10;12.20;99.90
35445;DHT22;21562;49.476;6.086;2022-11-15T03:23:38;12.20;99.90
35445;DHT22;21562;49.476;6.086;2022-11-15T03:26:07;12.20;99.90
35445;DHT22;21562;49.476;6.086;2022-11-15T03:28:49;12.10;99.90
35445;DHT22;21562;49.476;6.086;2022-11-15T03:31:17;11.90;99.90
35445;DHT22;21562;49.476;6.086;2022-11-15T03:34:05;11.90;99.90
35445;DHT22;21562;49.476;6.086;2022-11-15T03:36:33;12.00;99.90
35445;DHT22;21562;49.476;6.086;2022-11-15T03:39:02;12.10;99.90
35445;DHT22;21562;49.476;6.086;2022-11-15T03:47:16;12.60;99.90
35445;DHT22;21562;49.476;6.086;2022-11-15T03:49:49;12.50;99.90
35445;DHT22;21562;49.476;6.086;2022-11-15T03:52:21;12.30;99.90
35445;DHT22;21562;49.476;6.086;2022-11-15T03:54:55;12.40;99.90
35445;DHT22;21562;49.476;6.086;2022-11-15T03:57:22;12.30;99.90
35445;DHT22;21562;49.476;6.086;2022-11-15T03:59:48;12.20;99.90
35445;DHT22;21562;49.476;6.086;2022-11-15T04:02:14;12.10;99.90
35445;DHT22;21562;49.476;6.086;2022-11-15T04:04:40;12.00;99.90
35445;DHT22;21562;49.476;6.086;2022-11-15T04:07:06;12.20;99.90
35445;DHT22;21562;49.476;6.086;2022-11-15T04:09:31;12.10;99.90
35445;DHT22;21562;49.476;6.086;2022-11-15T04:11:57;12.20;99.90
35445;DHT22;21562;49.476;6.086;2022-11-15T04:14:23;12.10;99.90
35445;DHT22;21562;49.476;6.086;2022-11-15T04:16:49;12.20;99.90
35445;DHT22;21562;49.476;6.086;2022-11-15T04:19:14;12.30;99.90
35445;DHT22;21562;49.476;6.086;2022-11-15T04:21:58;12.30;99.90
35445;DHT22;21562;49.476;6.086;2022-11-15T04:24:42;12.10;99.90
35445;DHT22;21562;49.476;6.086;2022-11-15T04:27:08;11.80;99.90
35445;DHT22;21562;49.476;6.086;2022-11-15T04:29:34;11.80;99.90
35445;DHT22;21562;49.476;6.086;2022-11-15T04:32:04;11.90;99.90
35445;DHT22;21562;49.476;6.086;2022-11-15T04:34:30;11.50;99.90
35445;DHT22;21562;49.476;6.086;2022-11-15T04:36:56;11.40;99.90
35445;DHT22;21562;49.476;6.086;2022-11-15T04:39:37;11.30;99.90
35445;DHT22;21562;49.476;6.086;2022-11-15T04:42:03;11.20;99.90
35445;DHT22;21562;49.476;6.086;2022-11-15T04:44:29;11.20;99.90
35445;DHT22;21562;49.476;6.086;2022-11-15T04:46:56;11.20;99.90
35445;DHT22;21562;49.476;6.086;2022-11-15T04:49:22;11.20;99.90
35445;DHT22;21562;49.476;6.086;2022-11-15T04:51:47;11.30;99.90
35445;DHT22;21562;49.476;6.086;2022-11-15T04:54:13;11.40;99.90
35445;DHT22;21562;49.476;6.086;2022-11-15T04:56:39;11.50;99.90
35445;DHT22;21562;49.476;6.086;2022-11-15T04:59:04;11.20;99.90
35445;DHT22;21562;49.476;6.086;2022-11-15T05:01:30;11.30;99.90
35445;DHT22;21562;49.476;6.086;2022-11-15T05:03:56;11.10;99.90
35445;DHT22;21562;49.476;6.086;2022-11-15T05:06:41;11.20;99.90
35445;DHT22;21562;49.476;6.086;2022-11-15T05:09:07;11.20;99.90
35445;DHT22;21562;49.476;6.086;2022-11-15T05:11:50;11.30;99.90
35445;DHT22;21562;49.476;6.086;2022-11-15T05:14:16;11.10;99.90
35445;DHT22;21562;49.476;6.086;2022-11-15T05:16:42;11.00;99.90
35445;DHT22;21562;49.476;6.086;2022-11-15T05:19:08;10.90;99.90
35445;DHT22;21562;49.476;6.086;2022-11-15T05:21:34;10.80;99.90
35445;DHT22;21562;49.476;6.086;2022-11-15T05:23:59;10.70;99.90
35445;DHT22;21562;49.476;6.086;2022-11-15T05:26:25;10.80;99.90
35445;DHT22;21562;49.476;6.086;2022-11-15T05:28:55;11.00;99.90
35445;DHT22;21562;49.476;6.086;2022-11-15T05:31:22;11.20;99.90
35445;DHT22;21562;49.476;6.086;2022-11-15T05:33:49;11.10;99.90
35445;DHT22;21562;49.476;6.086;2022-11-15T05:38:42;11.00;99.90
35445;DHT22;21562;49.476;6.086;2022-11-15T05:41:08;11.20;99.90
35445;DHT22;21562;49.476;6.086;2022-11-15T05:43:36;11.10;99.90
35445;DHT22;21562;49.476;6.086;2022-11-15T05:46:03;10.90;99.90
35445;DHT22;21562;49.476;6.086;2022-11-15T05:48:29;10.90;99.90
35445;DHT22;21562;49.476;6.086;2022-11-15T05:50:56;10.80;99.90
35445;DHT22;21562;49.476;6.086;2022-11-15T05:53:23;10.90;99.90
35445;DHT22;21562;49.476;6.086;2022-11-15T05:55:50;11.00;99.90
35445;DHT22;21562;49.476;6.086;2022-11-15T05:58:16;11.00;99.90
35445;DHT22;21562;49.476;6.086;2022-11-15T06:00:42;11.10;99.90
35445;DHT22;21562;49.476;6.086;2022-11-15T06:03:08;11.10;99.90
35445;DHT22;21562;49.476;6.086;2022-11-15T06:05:34;11.10;99.90
35445;DHT22;21562;49.476;6.086;2022-11-15T06:08:00;11.20;99.90
35445;DHT22;21562;49.476;6.086;2022-11-15T06:10:26;11.40;99.90
35445;DHT22;21562;49.476;6.086;2022-11-15T06:13:02;11.70;99.90
35445;DHT22;21562;49.476;6.086;2022-11-15T06:15:28;11.90;99.90
35445;DHT22;21562;49.476;6.086;2022-11-15T06:17:57;12.00;99.90
35445;DHT22;21562;49.476;6.086;2022-11-15T06:20:24;12.30;99.90
35445;DHT22;21562;49.476;6.086;2022-11-15T06:22:50;12.50;99.90
35445;DHT22;21562;49.476;6.086;2022-11-15T06:25:15;12.60;99.90
35445;DHT22;21562;49.476;6.086;2022-11-15T06:27:41;12.80;99.90
35445;DHT22;21562;49.476;6.086;2022-11-15T06:30:07;12.80;99.90
35445;DHT22;21562;49.476;6.086;2022-11-15T06:32:33;12.90;99.90
35445;DHT22;21562;49.476;6.086;2022-11-15T06:34:59;13.00;99.90
35445;DHT22;21562;49.476;6.086;2022-11-15T06:37:24;13.00;99.90
35445;DHT22;21562;49.476;6.086;2022-11-15T06:39:50;13.00;99.90
35445;DHT22;21562;49.476;6.086;2022-11-15T06:42:16;13.10;99.90
35445;DHT22;21562;49.476;6.086;2022-11-15T06:44:41;13.10;99.90
35445;DHT22;21562;49.476;6.086;2022-11-15T06:47:07;13.10;99.90
35445;DHT22;21562;49.476;6.086;2022-11-15T06:49:33;13.10;99.90
35445;DHT22;21562;49.476;6.086;2022-11-15T06:51:58;13.70;99.90
35445;DHT22;21562;49.476;6.086;2022-11-15T06:54:24;15.10;99.90
35445;DHT22;21562;49.476;6.086;2022-11-15T06:56:49;16.20;99.90
35445;DHT22;21562;49.476;6.086;2022-11-15T06:59:15;17.10;99.90
35445;DHT22;21562;49.476;6.086;2022-11-15T07:01:41;17.40;99.90
35445;DHT22;21562;49.476;6.086;2022-11-15T07:04:07;17.40;99.90
35445;DHT22;21562;49.476;6.086;2022-11-15T07:06:32;17.20;99.90
35445;DHT22;21562;49.476;6.086;2022-11-15T07:08:58;16.90;99.90
35445;DHT22;21562;49.476;6.086;2022-11-15T07:11:24;16.40;99.90
35445;DHT22;21562;49.476;6.086;2022-11-15T07:13:49;15.90;99.90
35445;DHT22;21562;49.476;6.086;2022-11-15T07:16:15;15.60;99.90
35445;DHT22;21562;49.476;6.086;2022-11-15T07:18:41;15.20;99.90
35445;DHT22;21562;49.476;6.086;2022-11-15T07:21:08;14.90;99.90
35445;DHT22;21562;49.476;6.086;2022-11-15T07:23:38;14.40;99.90
35445;DHT22;21562;49.476;6.086;2022-11-15T07:26:05;14.30;99.90
35445;DHT22;21562;49.476;6.086;2022-11-15T07:28:31;14.00;99.90
35445;DHT22;21562;49.476;6.086;2022-11-15T07:30:56;13.90;99.90
35445;DHT22;21562;49.476;6.086;2022-11-15T07:33:22;13.80;99.90
35445;DHT22;21562;49.476;6.086;2022-11-15T07:35:48;13.80;99.90
35445;DHT22;21562;49.476;6.086;2022-11-15T07:38:13;13.80;99.90
35445;DHT22;21562;49.476;6.086;2022-11-15T07:40:40;13.70;99.90
35445;DHT22;21562;49.476;6.086;2022-11-15T07:43:07;13.70;99.90
35445;DHT22;21562;49.476;6.086;2022-11-15T07:45:39;13.60;99.90
35445;DHT22;21562;49.476;6.086;2022-11-15T07:48:05;13.60;99.90
35445;DHT22;21562;49.476;6.086;2022-11-15T07:50:31;13.60;99.90
35445;DHT22;21562;49.476;6.086;2022-11-15T07:52:58;13.60;99.90
35445;DHT22;21562;49.476;6.086;2022-11-15T07:55:26;13.20;99.90
35445;DHT22;21562;49.476;6.086;2022-11-15T07:57:53;12.70;99.90
35445;DHT22;21562;49.476;6.086;2022-11-15T08:00:25;12.50;99.90
35445;DHT22;21562;49.476;6.086;2022-11-15T08:02:50;12.40;99.90
35445;DHT22;21562;49.476;6.086;2022-11-15T08:05:16;12.40;99.90
35445;DHT22;21562;49.476;6.086;2022-11-15T08:07:42;12.40;99.90
35445;DHT22;21562;49.476;6.086;2022-11-15T08:10:08;12.50;99.90
35445;DHT22;21562;49.476;6.086;2022-11-15T08:12:33;12.60;99.90
35445;DHT22;21562;49.476;6.086;2022-11-15T08:15:00;12.60;99.90
35445;DHT22;21562;49.476;6.086;2022-11-15T08:17:25;12.80;99.90
35445;DHT22;21562;49.476;6.086;2022-11-15T08:19:51;12.90;99.90
35445;DHT22;21562;49.476;6.086;2022-11-15T08:22:17;12.80;99.90
35445;DHT22;21562;49.476;6.086;2022-11-15T08:24:44;12.80;99.90
35445;DHT22;21562;49.476;6.086;2022-11-15T08:27:10;12.90;99.90
35445;DHT22;21562;49.476;6.086;2022-11-15T08:29:42;12.90;99.90
35445;DHT22;21562;49.476;6.086;2022-11-15T08:32:08;12.60;99.90
35445;DHT22;21562;49.476;6.086;2022-11-15T08:34:33;12.70;99.90
35445;DHT22;21562;49.476;6.086;2022-11-15T08:36:59;12.90;99.90
35445;DHT22;21562;49.476;6.086;2022-11-15T08:39:25;13.10;99.90
35445;DHT22;21562;49.476;6.086;2022-11-15T08:41:50;13.30;99.90
35445;DHT22;21562;49.476;6.086;2022-11-15T08:44:16;13.40;99.90
35445;DHT22;21562;49.476;6.086;2022-11-15T08:46:42;13.30;99.90
35445;DHT22;21562;49.476;6.086;2022-11-15T08:49:07;13.30;99.90
35445;DHT22;21562;49.476;6.086;2022-11-15T08:51:33;13.10;99.90
35445;DHT22;21562;49.476;6.086;2022-11-15T08:53:59;13.10;99.90
35445;DHT22;21562;49.476;6.086;2022-11-15T08:56:24;13.10;99.90
35445;DHT22;21562;49.476;6.086;2022-11-15T08:58:50;13.10;99.90
35445;DHT22;21562;49.476;6.086;2022-11-15T09:01:18;13.10;99.90
35445;DHT22;21562;49.476;6.086;2022-11-15T09:03:43;13.00;99.90
35445;DHT22;21562;49.476;6.086;2022-11-15T09:06:09;13.10;99.90
35445;DHT22;21562;49.476;6.086;2022-11-15T09:08:35;13.10;99.90
35445;DHT22;21562;49.476;6.086;2022-11-15T09:11:05;13.10;99.90
35445;DHT22;21562;49.476;6.086;2022-11-15T09:13:32;13.10;99.90
35445;DHT22;21562;49.476;6.086;2022-11-15T09:15:59;13.10;99.90
35445;DHT22;21562;49.476;6.086;2022-11-15T09:18:25;13.10;99.90
35445;DHT22;21562;49.476;6.086;2022-11-15T09:20:51;13.20;99.90
35445;DHT22;21562;49.476;6.086;2022-11-15T09:23:16;12.90;99.90
35445;DHT22;21562;49.476;6.086;2022-11-15T09:25:42;13.00;99.90
35445;DHT22;21562;49.476;6.086;2022-11-15T09:28:08;12.70;99.90
35445;DHT22;21562;49.476;6.086;2022-11-15T09:30:34;12.80;99.90
35445;DHT22;21562;49.476;6.086;2022-11-15T09:33:07;12.90;99.90
35445;DHT22;21562;49.476;6.086;2022-11-15T09:35:33;13.10;99.90
35445;DHT22;21562;49.476;6.086;2022-11-15T09:37:58;13.20;99.90
35445;DHT22;21562;49.476;6.086;2022-11-15T09:40:24;13.40;99.90
35445;DHT22;21562;49.476;6.086;2022-11-15T09:43:01;13.50;99.90
35445;DHT22;21562;49.476;6.086;2022-11-15T09:48:36;13.20;99.90
35445;DHT22;21562;49.476;6.086;2022-11-15T09:51:12;13.10;99.90
35445;DHT22;21562;49.476;6.086;2022-11-15T09:56:40;13.20;99.90
35445;DHT22;21562;49.476;6.086;2022-11-15T10:04:41;13.30;99.90
35445;DHT22;21562;49.476;6.086;2022-11-15T10:12:38;13.40;99.90
35445;DHT22;21562;49.476;6.086;2022-11-15T10:15:11;13.20;99.90
35445;DHT22;21562;49.476;6.086;2022-11-15T10:17:54;13.30;99.90
35445;DHT22;21562;49.476;6.086;2022-11-15T10:20:24;13.40;99.90
35445;DHT22;21562;49.476;6.086;2022-11-15T10:22:59;13.60;99.90
35445;DHT22;21562;49.476;6.086;2022-11-15T10:25:26;13.70;99.90
35445;DHT22;21562;49.476;6.086;2022-11-15T10:28:16;14.00;99.90
35445;DHT22;21562;49.476;6.086;2022-11-15T10:30:46;13.80;99.90
35445;DHT22;21562;49.476;6.086;2022-11-15T10:33:34;14.10;99.90
35445;DHT22;21562;49.476;6.086;2022-11-15T10:41:37;14.20;99.90
35445;DHT22;21562;49.476;6.086;2022-11-15T10:49:28;14.50;99.90
35445;DHT22;21562;49.476;6.086;2022-11-15T10:52:01;14.50;99.90
35445;DHT22;21562;49.476;6.086;2022-11-15T10:54:33;14.40;99.90
35445;DHT22;21562;49.476;6.086;2022-11-15T10:57:04;14.40;99.90
35445;DHT22;21562;49.476;6.086;2022-11-15T10:59:32;14.20;99.90
35445;DHT22;21562;49.476;6.086;2022-11-15T11:02:00;14.10;99.90
35445;DHT22;21562;49.476;6.086;2022-11-15T11:04:26;14.20;99.90
35445;DHT22;21562;49.476;6.086;2022-11-15T11:06:59;14.10;99.90
35445;DHT22;21562;49.476;6.086;2022-11-15T11:09:32;14.10;99.90
35445;DHT22;21562;49.476;6.086;2022-11-15T11:11:59;14.20;99.90
35445;DHT22;21562;49.476;6.086;2022-11-15T11:14:34;14.00;99.90
35445;DHT22;21562;49.476;6.086;2022-11-15T11:17:43;14.10;99.90
35445;DHT22;21562;49.476;6.086;2022-11-15T11:23:01;14.10;99.90
35445;DHT22;21562;49.476;6.086;2022-11-15T11:25:34;14.30;99.90
35445;DHT22;21562;49.476;6.086;2022-11-15T11:31:18;14.30;99.90
35445;DHT22;21562;49.476;6.086;2022-11-15T11:34:11;14.20;99.90
35445;DHT22;21562;49.476;6.086;2022-11-15T11:37:12;14.30;99.90
35445;DHT22;21562;49.476;6.086;2022-11-15T11:39:52;14.40;99.90
35445;DHT22;21562;49.476;6.086;2022-11-15T11:48:11;14.60;99.90
35445;DHT22;21562;49.476;6.086;2022-11-15T11:50:38;14.70;99.90
35445;DHT22;21562;49.476;6.086;2022-11-15T11:53:21;14.70;99.90
35445;DHT22;21562;49.476;6.086;2022-11-15T11:55:53;14.60;99.90
35445;DHT22;21562;49.476;6.086;2022-11-15T11:58:27;14.80;99.90
35445;DHT22;21562;49.476;6.086;2022-11-15T12:01:25;14.90;99.90
35445;DHT22;21562;49.476;6.086;2022-11-15T12:06:32;14.80;99.90
35445;DHT22;21562;49.476;6.086;2022-11-15T12:09:23;14.90;99.90
35445;DHT22;21562;49.476;6.086;2022-11-15T12:15:01;14.70;99.90
35445;DHT22;21562;49.476;6.086;2022-11-15T12:17:29;14.80;99.90
35445;DHT22;21562;49.476;6.086;2022-11-15T12:20:02;14.80;99.90
35445;DHT22;21562;49.476;6.086;2022-11-15T12:25:42;14.80;99.90
35445;DHT22;21562;49.476;6.086;2022-11-15T12:30:54;15.00;99.90
35445;DHT22;21562;49.476;6.086;2022-11-15T12:36:04;15.20;99.90
35445;DHT22;21562;49.476;6.086;2022-11-15T12:38:50;15.00;99.90
35445;DHT22;21562;49.476;6.086;2022-11-15T12:41:18;15.10;99.90
35445;DHT22;21562;49.476;6.086;2022-11-15T12:43:46;15.20;99.90
35445;DHT22;21562;49.476;6.086;2022-11-15T12:46:20;15.30;99.90
35445;DHT22;21562;49.476;6.086;2022-11-15T12:48:51;15.50;99.90
35445;DHT22;21562;49.476;6.086;2022-11-15T12:51:20;15.40;99.90
35445;DHT22;21562;49.476;6.086;2022-11-15T12:53:46;15.30;99.90
35445;DHT22;21562;49.476;6.086;2022-11-15T12:58:58;15.50;99.90
35445;DHT22;21562;49.476;6.086;2022-11-15T13:12:48;15.60;99.90
35445;DHT22;21562;49.476;6.086;2022-11-15T13:20:49;15.60;99.90
35445;DHT22;21562;49.476;6.086;2022-11-15T13:23:15;15.60;99.90
35445;DHT22;21562;49.476;6.086;2022-11-15T13:31:37;15.20;99.90
35445;DHT22;21562;49.476;6.086;2022-11-15T13:34:30;15.20;99.90
35445;DHT22;21562;49.476;6.086;2022-11-15T13:37:01;15.20;99.90
35445;DHT22;21562;49.476;6.086;2022-11-15T13:39:29;15.30;99.90
35445;DHT22;21562;49.476;6.086;2022-11-15T13:41:55;15.40;99.90
35445;DHT22;21562;49.476;6.086;2022-11-15T13:44:26;14.90;99.90
35445;DHT22;21562;49.476;6.086;2022-11-15T13:47:28;15.10;99.90
35445;DHT22;21562;49.476;6.086;2022-11-15T13:49:57;14.80;99.90
35445;DHT22;21562;49.476;6.086;2022-11-15T13:52:27;14.90;99.90
35445;DHT22;21562;49.476;6.086;2022-11-15T13:55:13;15.10;99.90
35445;DHT22;21562;49.476;6.086;2022-11-15T13:57:46;14.90;99.90
35445;DHT22;21562;49.476;6.086;2022-11-15T14:00:34;15.10;99.90
35445;DHT22;21562;49.476;6.086;2022-11-15T14:05:39;15.30;99.90
35445;DHT22;21562;49.476;6.086;2022-11-15T14:08:23;15.40;99.90
35445;DHT22;21562;49.476;6.086;2022-11-15T14:11:09;15.60;99.90
35445;DHT22;21562;49.476;6.086;2022-11-15T14:13:36;15.40;99.90
35445;DHT22;21562;49.476;6.086;2022-11-15T14:19:01;15.10;99.90
35445;DHT22;21562;49.476;6.086;2022-11-15T14:21:26;15.10;99.90
35445;DHT22;21562;49.476;6.086;2022-11-15T14:23:52;15.00;99.90
35445;DHT22;21562;49.476;6.086;2022-11-15T14:26:33;15.00;99.90
35445;DHT22;21562;49.476;6.086;2022-11-15T14:29:27;15.00;99.90
35445;DHT22;21562;49.476;6.086;2022-11-15T14:32:05;15.10;99.90
35445;DHT22;21562;49.476;6.086;2022-11-15T14:34:37;15.10;99.90
35445;DHT22;21562;49.476;6.086;2022-11-15T14:37:02;15.10;99.90
35445;DHT22;21562;49.476;6.086;2022-11-15T14:39:28;15.10;99.90
35445;DHT22;21562;49.476;6.086;2022-11-15T14:41:54;15.20;99.90
35445;DHT22;21562;49.476;6.086;2022-11-15T14:44:19;15.30;99.90
35445;DHT22;21562;49.476;6.086;2022-11-15T14:46:47;15.30;99.90
35445;DHT22;21562;49.476;6.086;2022-11-15T14:49:14;15.40;99.90
35445;DHT22;21562;49.476;6.086;2022-11-15T14:51:40;15.50;99.90
35445;DHT22;21562;49.476;6.086;2022-11-15T14:54:10;15.50;99.90
35445;DHT22;21562;49.476;6.086;2022-11-15T14:56:36;15.60;99.90
35445;DHT22;21562;49.476;6.086;2022-11-15T14:59:01;15.70;99.90
35445;DHT22;21562;49.476;6.086;2022-11-15T15:01:27;15.60;99.90
35445;DHT22;21562;49.476;6.086;2022-11-15T15:03:53;15.60;99.90
35445;DHT22;21562;49.476;6.086;2022-11-15T15:06:22;15.60;99.90
35445;DHT22;21562;49.476;6.086;2022-11-15T15:08:48;15.50;99.90
35445;DHT22;21562;49.476;6.086;2022-11-15T15:11:29;15.40;99.90
35445;DHT22;21562;49.476;6.086;2022-11-15T15:13:56;15.40;99.90
35445;DHT22;21562;49.476;6.086;2022-11-15T15:16:24;15.40;99.90
35445;DHT22;21562;49.476;6.086;2022-11-15T15:18:50;15.40;99.90
35445;DHT22;21562;49.476;6.086;2022-11-15T15:21:27;15.40;99.90
35445;DHT22;21562;49.476;6.086;2022-11-15T15:23:53;15.50;99.90
35445;DHT22;21562;49.476;6.086;2022-11-15T15:26:20;15.60;99.90
35445;DHT22;21562;49.476;6.086;2022-11-15T15:28:46;15.80;99.90
35445;DHT22;21562;49.476;6.086;2022-11-15T15:31:14;15.90;99.90
35445;DHT22;21562;49.476;6.086;2022-11-15T15:33:40;15.90;99.90
35445;DHT22;21562;49.476;6.086;2022-11-15T15:36:12;15.90;99.90
35445;DHT22;21562;49.476;6.086;2022-11-15T15:38:38;15.80;99.90
35445;DHT22;21562;49.476;6.086;2022-11-15T15:41:11;15.80;99.90
35445;DHT22;21562;49.476;6.086;2022-11-15T15:43:37;15.60;99.90
35445;DHT22;21562;49.476;6.086;2022-11-15T15:46:02;15.50;99.90
35445;DHT22;21562;49.476;6.086;2022-11-15T15:48:28;15.40;99.90
35445;DHT22;21562;49.476;6.086;2022-11-15T15:50:54;15.50;99.90
35445;DHT22;21562;49.476;6.086;2022-11-15T15:53:19;15.60;99.90
35445;DHT22;21562;49.476;6.086;2022-11-15T15:55:45;15.50;99.90
35445;DHT22;21562;49.476;6.086;2022-11-15T15:58:11;15.70;99.90
35445;DHT22;21562;49.476;6.086;2022-11-15T16:00:37;15.70;99.90
35445;DHT22;21562;49.476;6.086;2022-11-15T16:03:03;15.80;99.90
35445;DHT22;21562;49.476;6.086;2022-11-15T16:05:29;15.80;99.90
35445;DHT22;21562;49.476;6.086;2022-11-15T16:07:54;15.70;99.90
35445;DHT22;21562;49.476;6.086;2022-11-15T16:10:28;15.60;99.90
35445;DHT22;21562;49.476;6.086;2022-11-15T16:12:55;15.50;99.90
35445;DHT22;21562;49.476;6.086;2022-11-15T16:15:23;15.40;99.90
35445;DHT22;21562;49.476;6.086;2022-11-15T16:20:36;15.20;99.90
35445;DHT22;21562;49.476;6.086;2022-11-15T16:23:05;15.20;99.90
35445;DHT22;21562;49.476;6.086;2022-11-15T16:25:36;15.20;99.90
35445;DHT22;21562;49.476;6.086;2022-11-15T16:28:02;15.30;99.90
35445;DHT22;21562;49.476;6.086;2022-11-15T16:30:28;15.30;99.90
35445;DHT22;21562;49.476;6.086;2022-11-15T16:32:54;15.30;99.90
35445;DHT22;21562;49.476;6.086;2022-11-15T16:35:19;15.30;99.90
35445;DHT22;21562;49.476;6.086;2022-11-15T16:37:45;15.50;99.90
35445;DHT22;21562;49.476;6.086;2022-11-15T16:42:45;15.50;99.90
35445;DHT22;21562;49.476;6.086;2022-11-15T16:45:12;15.50;99.90
35445;DHT22;21562;49.476;6.086;2022-11-15T16:47:39;15.50;99.90
35445;DHT22;21562;49.476;6.086;2022-11-15T16:50:04;15.40;99.90
35445;DHT22;21562;49.476;6.086;2022-11-15T16:52:30;15.20;99.90
35445;DHT22;21562;49.476;6.086;2022-11-15T16:54:56;15.30;99.90
35445;DHT22;21562;49.476;6.086;2022-11-15T16:57:21;15.20;99.90
35445;DHT22;21562;49.476;6.086;2022-11-15T16:59:47;15.10;99.90
35445;DHT22;21562;49.476;6.086;2022-11-15T17:02:13;15.20;99.90
35445;DHT22;21562;49.476;6.086;2022-11-15T17:04:38;15.20;99.90
35445;DHT22;21562;49.476;6.086;2022-11-15T17:07:04;15.30;99.90
35445;DHT22;21562;49.476;6.086;2022-11-15T17:09:30;15.50;99.90
35445;DHT22;21562;49.476;6.086;2022-11-15T17:11:55;15.20;99.90
35445;DHT22;21562;49.476;6.086;2022-11-15T17:14:21;15.30;99.90
35445;DHT22;21562;49.476;6.086;2022-11-15T17:16:46;15.30;99.90
35445;DHT22;21562;49.476;6.086;2022-11-15T17:21:39;15.50;99.90
35445;DHT22;21562;49.476;6.086;2022-11-15T17:24:04;15.50;99.90
35445;DHT22;21562;49.476;6.086;2022-11-15T17:26:30;15.40;99.90
35445;DHT22;21562;49.476;6.086;2022-11-15T17:28:56;15.40;99.90
35445;DHT22;21562;49.476;6.086;2022-11-15T17:31:22;15.40;99.90
35445;DHT22;21562;49.476;6.086;2022-11-15T17:33:47;15.50;99.90
35445;DHT22;21562;49.476;6.086;2022-11-15T17:36:13;15.60;99.90
35445;DHT22;21562;49.476;6.086;2022-11-15T17:38:41;15.40;99.90
35445;DHT22;21562;49.476;6.086;2022-11-15T17:41:13;15.20;99.90
35445;DHT22;21562;49.476;6.086;2022-11-15T17:43:40;15.40;99.90
35445;DHT22;21562;49.476;6.086;2022-11-15T17:46:08;15.40;99.90
35445;DHT22;21562;49.476;6.086;2022-11-15T17:48:35;15.50;99.90
35445;DHT22;21562;49.476;6.086;2022-11-15T17:51:02;15.50;99.90
35445;DHT22;21562;49.476;6.086;2022-11-15T17:53:33;15.60;99.90